createdAt,value
2023-05-10T04:31:32.966Z,0.0000
2023-05-10T04:32:35.035Z,0.0000
2023-05-10T04:33:37.042Z,0.0000
2023-05-10T04:34:39.169Z,0.0000
2023-05-10T04:35:41.194Z,0.0000
2023-05-10T04:36:43.201Z,0.0000
2023-05-10T04:37:45.884Z,0.0000
2023-05-10T04:38:47.283Z,0.0000
2023-05-10T04:39:51.897Z,0.0000
2023-05-10T04:40:51.379Z,0.0000
2023-05-10T04:41:53.439Z,0.0000
2023-05-10T04:42:55.466Z,1.3846
2023-05-10T04:43:57.510Z,0.6154
2023-05-10T04:44:59.596Z,1.9231
2023-05-10T04:46:01.614Z,10.9231
2023-05-10T04:47:03.643Z,1.3846
2023-05-10T04:48:05.777Z,4.1538
2023-05-10T04:49:07.723Z,3.0000
2023-05-10T04:50:09.751Z,9.9231
2023-05-10T04:51:11.800Z,13.5385
2023-05-10T04:52:13.861Z,103.2308
2023-05-10T04:53:16.056Z,80.3846
2023-05-10T04:54:17.941Z,47.1538
2023-05-10T04:55:19.988Z,38.6154
2023-05-10T04:56:22.025Z,55.3846
2023-05-10T04:57:24.066Z,44.4615
2023-05-10T04:58:26.104Z,19.6923
2023-05-10T04:59:28.211Z,18.0769
2023-05-10T05:00:30.189Z,11.0769
2023-05-10T05:01:32.319Z,2.4615
2023-05-10T05:02:34.371Z,0.6923
2023-05-10T05:03:36.342Z,0.4615
2023-05-10T05:04:38.365Z,1.6923
2023-05-10T05:05:40.410Z,2.9231
2023-05-10T05:06:42.467Z,2.3077
2023-05-10T05:07:44.492Z,0.8462
2023-05-10T05:08:46.528Z,0.5385
2023-05-10T05:09:48.584Z,1.0000
2023-05-10T05:10:50.698Z,1.6923
2023-05-10T05:11:52.681Z,2.6154
2023-05-10T05:12:54.731Z,2.4615
2023-05-10T05:13:56.740Z,1.3077
2023-05-10T05:14:58.800Z,1.0769
2023-05-10T05:16:00.857Z,1.1538
2023-05-10T05:17:02.881Z,1.3846
2023-05-10T05:18:04.994Z,3.3077
2023-05-10T05:19:06.971Z,2.0769
2023-05-10T05:20:09.024Z,0.6923
2023-05-10T05:21:11.072Z,3.6154
2023-05-10T05:22:13.114Z,3.2308
2023-05-10T05:23:15.142Z,2.0769
2023-05-10T05:24:17.194Z,3.0769
2023-05-10T05:25:19.244Z,1.6154
2023-05-10T05:26:21.301Z,2.5385
2023-05-10T05:27:23.326Z,1.6154
2023-05-10T05:28:25.377Z,2.6923
2023-05-10T05:29:27.442Z,3.4615
2023-05-10T05:30:29.443Z,4.0769
2023-05-10T05:31:31.558Z,4.6923
2023-05-10T05:32:33.724Z,2.0769
2023-05-10T05:33:37.531Z,2.7692
2023-05-10T05:34:37.639Z,1.0833
2023-05-10T05:35:40.478Z,4.6154
2023-05-10T05:36:41.731Z,2.6923
2023-05-10T05:37:43.788Z,1.6154
2023-05-10T05:38:45.802Z,1.9231
2023-05-10T05:39:47.957Z,2.0000
2023-05-10T05:40:50.045Z,7.4615
2023-05-10T05:41:51.960Z,9.0000
2023-05-10T05:42:53.986Z,8.4615
2023-05-10T05:43:56.043Z,11.1538
2023-05-10T05:44:58.059Z,19.2308
2023-05-10T05:46:00.202Z,25.1538
2023-05-10T05:47:02.284Z,24.3846
2023-05-10T05:48:04.359Z,24.4615
2023-05-10T05:49:06.306Z,28.7692
2023-05-10T05:50:08.355Z,30.2308
2023-05-10T05:51:12.063Z,33.2308
2023-05-10T05:52:12.400Z,40.0000
2023-05-10T05:53:31.400Z,47.4615
2023-05-10T05:54:17.803Z,45.8000
2023-05-10T05:55:20.552Z,45.5385
2023-05-10T05:56:20.614Z,49.3333
2023-05-10T05:57:22.630Z,52.2308
2023-05-10T05:58:24.671Z,60.2308
2023-05-10T05:59:26.757Z,54.2308
2023-05-10T06:00:31.513Z,41.0000
2023-05-10T06:01:31.361Z,42.8462
2023-05-10T06:02:32.946Z,93.3846
2023-05-10T06:03:35.032Z,91.3077
2023-05-10T06:04:36.994Z,72.2308
2023-05-10T06:05:39.009Z,73.9231
2023-05-10T06:06:42.009Z,70.9231
2023-05-10T06:07:43.906Z,65.5385
2023-05-10T06:08:45.121Z,65.3846
2023-05-10T06:09:47.201Z,60.6154
2023-05-10T06:10:49.227Z,51.5385
2023-05-10T06:11:51.323Z,40.8462
2023-05-10T06:12:53.419Z,41.2308
2023-05-10T06:13:55.408Z,48.9231
2023-05-10T06:14:57.460Z,36.3846
2023-05-10T06:15:59.490Z,32.1538
2023-05-10T06:17:01.830Z,35.1538
2023-05-10T06:18:06.688Z,27.6923
2023-05-10T06:19:06.764Z,31.8333
2023-05-10T06:20:07.664Z,28.7500
2023-05-10T06:21:09.691Z,30.5385
2023-05-10T06:22:12.729Z,36.3077
2023-05-10T06:23:13.809Z,38.4615
2023-05-10T06:24:14.308Z,39.7500
2023-05-10T06:25:20.527Z,29.8462
2023-05-10T06:26:20.058Z,23.7500
2023-05-10T06:27:21.992Z,17.4615
2023-05-10T06:28:27.057Z,18.3846
2023-05-10T06:29:26.068Z,20.2308
2023-05-10T06:30:28.120Z,18.6154
2023-05-10T06:31:30.220Z,29.1538
2023-05-10T06:32:32.266Z,31.3846
2023-05-10T06:33:34.336Z,31.2308
2023-05-10T06:34:36.315Z,27.3846
2023-05-10T06:35:38.348Z,25.3846
2023-05-10T06:36:40.390Z,31.6923
2023-05-10T06:37:42.447Z,22.4615
2023-05-10T06:38:44.467Z,25.3077
2023-05-10T06:39:46.526Z,16.9231
2023-05-10T06:40:48.580Z,16.8462
2023-05-10T06:41:50.603Z,15.9231
2023-05-10T06:42:52.692Z,16.0769
2023-05-10T06:43:54.865Z,8.6154
2023-05-10T06:44:56.729Z,2.9231
2023-05-10T06:45:58.847Z,0.3846
2023-05-10T06:47:00.846Z,0.3077
2023-05-10T06:48:04.577Z,3.8462
2023-05-10T06:49:04.937Z,3.9231
2023-05-10T06:50:07.028Z,7.0769
2023-05-10T06:51:09.043Z,9.0769
2023-05-10T06:52:11.164Z,11.4615
2023-05-10T06:53:13.104Z,10.6923
2023-05-10T06:54:15.191Z,14.3846
2023-05-10T06:55:17.455Z,10.2308
2023-05-10T06:56:19.261Z,5.6923
2023-05-10T06:57:31.169Z,2.9231
2023-05-10T06:58:23.328Z,0.6923
2023-05-10T06:59:25.452Z,4.1538
2023-05-10T07:00:27.473Z,6.0769
2023-05-10T07:01:29.493Z,16.2308
2023-05-10T07:02:31.545Z,15.6154
2023-05-10T07:03:33.613Z,17.0769
2023-05-10T07:04:35.693Z,22.0769
2023-05-10T07:05:37.860Z,22.6154
2023-05-10T07:06:39.734Z,36.6923
2023-05-10T07:07:41.767Z,32.8462
2023-05-10T07:08:43.820Z,26.6923
2023-05-10T07:09:45.869Z,34.4615
2023-05-10T07:10:47.909Z,31.5385
2023-05-10T07:11:49.942Z,28.5385
2023-05-10T07:12:52.226Z,22.4615
2023-05-10T07:13:56.063Z,19.0833
2023-05-10T07:14:56.096Z,19.5000
2023-05-10T07:15:58.123Z,25.7692
2023-05-10T07:17:00.296Z,28.3846
2023-05-10T07:18:02.288Z,30.7692
2023-05-10T07:19:04.270Z,38.7692
2023-05-10T07:20:06.388Z,51.4615
2023-05-10T07:21:08.354Z,42.8462
2023-05-10T07:22:10.404Z,36.9231
2023-05-10T07:23:12.445Z,36.0769
2023-05-10T07:24:14.511Z,28.1538
2023-05-10T07:25:16.623Z,25.0769
2023-05-10T07:26:18.617Z,23.6154
2023-05-10T07:27:20.605Z,18.2308
2023-05-10T07:28:22.688Z,13.0000
2023-05-10T07:29:24.764Z,16.0000
2023-05-10T07:30:26.780Z,15.2308
2023-05-10T07:31:28.893Z,15.5385
2023-05-10T07:32:30.886Z,13.3077
2023-05-10T07:33:32.964Z,15.0769
2023-05-10T07:34:34.966Z,16.0769
2023-05-10T07:35:37.100Z,11.5385
2023-05-10T07:36:39.034Z,12.9231
2023-05-10T07:37:41.112Z,13.4615
2023-05-10T07:38:43.136Z,12.4615
2023-05-10T07:39:45.216Z,8.7692
2023-05-10T07:40:47.207Z,7.9231
2023-05-10T07:41:49.279Z,14.8462
2023-05-10T07:42:51.322Z,15.7692
2023-05-10T07:43:53.360Z,19.6154
2023-05-10T07:44:55.399Z,24.3077
2023-05-10T07:45:57.470Z,28.4615
2023-05-10T07:46:59.484Z,25.0769
2023-05-10T07:48:01.553Z,27.9231
2023-05-10T07:49:03.591Z,23.6923
2023-05-10T07:50:07.874Z,18.4615
2023-05-10T07:51:07.688Z,17.6667
2023-05-10T07:52:09.747Z,13.6923
2023-05-10T07:53:11.852Z,10.5385
2023-05-10T07:54:13.870Z,7.0769
2023-05-10T07:55:16.096Z,10.2308
2023-05-10T07:56:18.513Z,11.4615
2023-05-10T07:57:20.007Z,10.6154
2023-05-10T07:58:24.047Z,11.9231
2023-05-10T07:59:25.971Z,18.2308
2023-05-10T08:00:26.126Z,19.5385
2023-05-10T08:01:28.142Z,22.1538
2023-05-10T08:02:30.343Z,30.4615
2023-05-10T08:03:32.487Z,27.2308
2023-05-10T08:04:34.322Z,18.5385
2023-05-10T08:05:36.349Z,21.6923
2023-05-10T08:06:38.399Z,21.4615
2023-05-10T08:07:40.412Z,18.9231
2023-05-10T08:08:42.543Z,18.5385
2023-05-10T08:09:44.532Z,21.2308
2023-05-10T08:10:46.603Z,20.0769
2023-05-10T08:11:49.113Z,22.6154
2023-05-10T08:12:50.769Z,26.2308
2023-05-10T08:13:53.495Z,22.6923
2023-05-10T08:14:56.488Z,23.6923
2023-05-10T08:15:57.082Z,28.0000
2023-05-10T08:17:11.632Z,27.3846
2023-05-10T08:18:00.973Z,30.2222
2023-05-10T08:19:04.319Z,32.1538
2023-05-10T08:20:05.339Z,32.6667
2023-05-10T08:21:07.051Z,29.9167
2023-05-10T08:22:09.087Z,28.7692
2023-05-10T08:23:11.120Z,28.3077
2023-05-10T08:24:13.280Z,36.3077
2023-05-10T08:25:18.155Z,34.1538
2023-05-10T08:26:17.276Z,28.5000
2023-05-10T08:27:19.460Z,29.0769
2023-05-10T08:28:21.461Z,29.4615
2023-05-10T08:29:23.366Z,26.7692
2023-05-10T08:30:25.453Z,26.7692
2023-05-10T08:31:27.894Z,27.1538
2023-05-10T08:32:29.556Z,27.7692
2023-05-10T08:33:31.608Z,31.3846
2023-05-10T08:34:34.541Z,35.7692
2023-05-10T08:35:35.768Z,29.3846
2023-05-10T08:36:37.783Z,36.6154
2023-05-10T08:37:40.228Z,46.8462
2023-05-10T08:38:41.872Z,37.6154
2023-05-10T08:39:43.950Z,33.5385
2023-05-10T08:40:46.132Z,34.3846
2023-05-10T08:41:49.004Z,40.0000
2023-05-10T08:42:50.220Z,43.4615
2023-05-10T08:43:55.109Z,36.3846
2023-05-10T08:44:54.182Z,31.0000
2023-05-10T08:45:56.244Z,39.0000
2023-05-10T08:46:58.268Z,39.3077
2023-05-10T08:48:00.440Z,40.1538
2023-05-10T08:49:02.342Z,43.3846
2023-05-10T08:50:04.377Z,43.6923
2023-05-10T08:51:06.552Z,50.4615
2023-05-10T08:52:08.609Z,45.8462
2023-05-10T08:53:10.702Z,44.5385
2023-05-10T08:54:12.553Z,52.0769
2023-05-10T08:55:14.739Z,55.3077
2023-05-10T08:56:16.730Z,60.3846
2023-05-10T08:57:18.755Z,63.6154
2023-05-10T08:58:20.802Z,60.6154
2023-05-10T08:59:22.919Z,53.6923
2023-05-10T09:00:26.097Z,47.7692
2023-05-10T09:01:29.603Z,41.9231
2023-05-10T09:02:29.566Z,38.7692
2023-05-10T09:03:30.947Z,36.0769
2023-05-10T09:04:33.052Z,35.3846
2023-05-10T09:05:37.124Z,38.4615
2023-05-10T09:06:38.033Z,32.3077
2023-05-10T09:07:40.217Z,33.0000
2023-05-10T09:08:41.188Z,27.3077
2023-05-10T09:09:44.626Z,27.0000
2023-05-10T09:10:49.222Z,24.6667
2023-05-10T09:11:47.361Z,17.7692
2023-05-10T09:13:05.114Z,20.4615
2023-05-10T09:13:52.215Z,24.4444
2023-05-10T09:14:53.457Z,22.5385
2023-05-10T09:16:00.328Z,25.3333
2023-05-10T09:16:57.612Z,24.1667
2023-05-10T09:18:01.499Z,29.6923
2023-05-10T09:19:01.665Z,21.8462
2023-05-10T09:20:03.729Z,14.1538
2023-05-10T09:21:05.714Z,11.8462
2023-05-10T09:22:08.579Z,10.8462
2023-05-10T09:23:09.805Z,16.1538
2023-05-10T09:24:11.846Z,14.0000
2023-05-10T09:25:14.801Z,17.0000
2023-05-10T09:26:15.984Z,15.0769
2023-05-10T09:27:17.995Z,14.0769
2023-05-10T09:28:20.114Z,14.6923
2023-05-10T09:29:22.130Z,19.1538
2023-05-10T09:30:24.274Z,15.9231
2023-05-10T09:31:26.359Z,18.8462
2023-05-10T09:32:28.310Z,18.0769
2023-05-10T09:33:30.291Z,23.9231
2023-05-10T09:34:35.666Z,27.9231
2023-05-10T09:35:34.354Z,30.5385
2023-05-10T09:36:36.389Z,35.0769
2023-05-10T09:37:39.016Z,28.5385
2023-05-10T09:38:40.472Z,32.6923
2023-05-10T09:39:42.534Z,37.4615
2023-05-10T09:40:44.656Z,33.0000
2023-05-10T09:41:46.587Z,35.3077
2023-05-10T09:42:48.653Z,29.6923
2023-05-10T09:43:50.661Z,25.7692
2023-05-10T09:44:52.732Z,29.9231
2023-05-10T09:45:54.866Z,31.9231
2023-05-10T09:46:57.377Z,34.2308
2023-05-10T09:47:58.951Z,34.5385
2023-05-10T09:49:00.927Z,38.8462
2023-05-10T09:50:02.928Z,54.0769
2023-05-10T09:51:05.083Z,55.1538
2023-05-10T09:52:07.116Z,49.6154
2023-05-10T09:53:09.057Z,54.5385
2023-05-10T09:54:11.134Z,64.7692
2023-05-10T09:55:13.157Z,58.0000
2023-05-10T09:56:15.222Z,53.2308
2023-05-10T09:57:17.264Z,54.9231
2023-05-10T09:58:19.416Z,59.5385
2023-05-10T09:59:21.299Z,67.6923
2023-05-10T10:00:23.430Z,57.7692
2023-05-10T10:01:25.473Z,49.0000
2023-05-10T10:02:27.521Z,46.6154
2023-05-10T10:03:30.413Z,43.2308
2023-05-10T10:04:31.684Z,51.7692
2023-05-10T10:05:33.614Z,42.3077
2023-05-10T10:06:35.635Z,42.8462
2023-05-10T10:07:37.686Z,42.1538
2023-05-10T10:08:39.737Z,35.9231
2023-05-10T10:09:41.785Z,30.9231
2023-05-10T10:10:43.798Z,20.7692
2023-05-10T10:11:46.106Z,14.3846
2023-05-10T10:12:47.921Z,13.7692
2023-05-10T10:13:49.971Z,22.6923
2023-05-10T10:14:51.982Z,25.0769
2023-05-10T10:15:54.075Z,18.0000
2023-05-10T10:17:06.407Z,9.0769
2023-05-10T10:17:58.143Z,13.1538
2023-05-10T10:19:00.438Z,10.8462
2023-05-10T10:20:02.192Z,20.5385
2023-05-10T10:21:04.417Z,28.3077
2023-05-10T10:22:06.309Z,25.9231
2023-05-10T10:23:08.294Z,23.4615
2023-05-10T10:24:10.394Z,22.2308
2023-05-10T10:25:12.402Z,24.9231
2023-05-10T10:26:14.429Z,20.4615
2023-05-10T10:27:16.541Z,12.3077
2023-05-10T10:28:18.853Z,11.3846
2023-05-10T10:29:20.561Z,8.9231
2023-05-10T10:30:22.622Z,15.4615
2023-05-10T10:31:24.697Z,16.0769
2023-05-10T10:32:26.782Z,14.2308
2023-05-10T10:33:29.252Z,13.4615
2023-05-10T10:34:30.816Z,12.0000
2023-05-10T10:35:32.879Z,14.1538
2023-05-10T10:36:34.931Z,9.9231
2023-05-10T10:37:37.028Z,16.3077
2023-05-10T10:38:39.066Z,9.6154
2023-05-10T10:39:41.031Z,13.3077
2023-05-10T10:40:43.069Z,10.0769
2023-05-10T10:41:45.141Z,4.3077
2023-05-10T10:42:47.187Z,3.3077
2023-05-10T10:43:49.206Z,1.8462
2023-05-10T10:44:51.251Z,17.0000
2023-05-10T10:45:53.302Z,21.9231
2023-05-10T10:46:55.361Z,23.1538
2023-05-10T10:47:57.474Z,17.6923
2023-05-10T10:48:59.484Z,15.1538
2023-05-10T10:50:01.592Z,11.9231
2023-05-10T10:51:03.523Z,19.3846
2023-05-10T10:52:05.580Z,12.7692
2023-05-10T10:53:07.779Z,19.4615
2023-05-10T10:54:09.671Z,21.3846
2023-05-10T10:55:11.753Z,22.3077
2023-05-10T10:56:13.742Z,28.6154
2023-05-10T10:57:15.883Z,36.7692
2023-05-10T10:58:17.842Z,35.3846
2023-05-10T10:59:19.858Z,42.7692
2023-05-10T11:00:21.968Z,53.5385
2023-05-10T11:01:23.998Z,53.7692
2023-05-10T11:02:26.122Z,39.0000
2023-05-10T11:03:28.057Z,29.0769
2023-05-10T11:04:30.155Z,27.0769
2023-05-10T11:05:32.222Z,31.5385
2023-05-10T11:06:34.256Z,38.8462
2023-05-10T11:07:36.208Z,27.9231
2023-05-10T11:08:39.074Z,26.8462
2023-05-10T11:09:40.400Z,30.1538
2023-05-10T11:10:42.328Z,24.0769
2023-05-10T11:11:44.435Z,23.4615
2023-05-10T11:12:46.448Z,23.1538
2023-05-10T11:13:50.955Z,22.3077
2023-05-10T11:14:50.760Z,24.3846
2023-05-10T11:15:52.640Z,19.7692
2023-05-10T11:16:54.688Z,14.2308
2023-05-10T11:17:58.647Z,16.0769
2023-05-10T11:18:58.863Z,26.0000
2023-05-10T11:20:00.802Z,20.6154
2023-05-10T11:21:02.836Z,17.3077
2023-05-10T11:22:04.854Z,15.3846
2023-05-10T11:23:06.908Z,21.8462
2023-05-10T11:24:08.941Z,17.2308
2023-05-10T11:25:11.016Z,16.0769
2023-05-10T11:26:13.557Z,14.0769
2023-05-10T11:27:16.382Z,12.0000
2023-05-10T11:28:17.119Z,6.0769
2023-05-10T11:29:19.172Z,6.5385
2023-05-10T11:30:21.288Z,13.4615
2023-05-10T11:31:23.324Z,9.6154
2023-05-10T11:32:25.382Z,4.4167
2023-05-10T11:33:27.339Z,8.4615
2023-05-10T11:34:29.388Z,9.4615
2023-05-10T11:35:31.447Z,10.8462
2023-05-10T11:36:33.581Z,15.5385
2023-05-10T11:37:35.514Z,15.8462
2023-05-10T11:38:37.685Z,15.2308
2023-05-10T11:39:39.661Z,13.6154
2023-05-10T11:40:41.661Z,22.7692
2023-05-10T11:41:43.731Z,19.3077
2023-05-10T11:42:45.823Z,10.3077
2023-05-10T11:43:47.821Z,9.6923
2023-05-10T11:44:49.851Z,8.6154
2023-05-10T11:45:52.061Z,9.2308
2023-05-10T11:46:53.937Z,16.6154
2023-05-10T11:47:56.045Z,9.4615
2023-05-10T11:48:58.146Z,7.0000
2023-05-10T11:50:00.147Z,7.0000
2023-05-10T11:51:02.267Z,5.0769
2023-05-10T11:52:04.280Z,3.6923
2023-05-10T11:53:06.296Z,2.7692
2023-05-10T11:54:08.284Z,1.3846
2023-05-10T11:55:10.339Z,10.2308
2023-05-10T11:56:12.427Z,29.8462
2023-05-10T11:57:14.408Z,27.9231
2023-05-10T11:58:16.493Z,22.4615
2023-05-10T11:59:18.509Z,17.0769
2023-05-10T12:00:20.594Z,18.3846
2023-05-10T12:01:22.659Z,24.7692
2023-05-10T12:02:24.705Z,28.7692
2023-05-10T12:03:26.809Z,33.3846
2023-05-10T12:04:28.977Z,40.5385
2023-05-10T12:05:30.828Z,39.0000
2023-05-10T12:06:32.987Z,40.5385
2023-05-10T12:07:35.026Z,39.3077
2023-05-10T12:08:36.935Z,30.4615
2023-05-10T12:09:43.828Z,26.0000
2023-05-10T12:10:41.013Z,26.0769
2023-05-10T12:11:44.318Z,30.3077
2023-05-10T12:12:45.494Z,29.6923
2023-05-10T12:13:49.076Z,29.1538
2023-05-10T12:14:49.193Z,23.7692
2023-05-10T12:15:51.269Z,24.5385
2023-05-10T12:16:53.608Z,36.6154
2023-05-10T12:17:55.480Z,67.3846
2023-05-10T12:18:57.448Z,90.6154
2023-05-10T12:19:59.518Z,95.5385
2023-05-10T12:21:01.502Z,95.6154
2023-05-10T12:22:03.565Z,100.0769
2023-05-10T12:23:05.612Z,94.1538
2023-05-10T12:24:10.007Z,81.5385
2023-05-10T12:25:09.681Z,74.7692
2023-05-10T12:26:11.828Z,70.8462
2023-05-10T12:27:13.795Z,61.3846
2023-05-10T12:28:15.810Z,63.3077
2023-05-10T12:29:19.685Z,66.6923
2023-05-10T12:30:20.625Z,69.8333
2023-05-10T12:31:22.049Z,70.6923
2023-05-10T12:32:24.032Z,56.0000
2023-05-10T12:33:26.077Z,52.3846
2023-05-10T12:34:29.610Z,50.2308
2023-05-10T12:35:31.153Z,41.6154
2023-05-10T12:36:32.314Z,45.8462
2023-05-10T12:37:34.271Z,49.0000
2023-05-10T12:38:36.416Z,48.2308
2023-05-10T12:39:38.498Z,52.2308
2023-05-10T12:40:42.223Z,52.9231
2023-05-10T12:41:43.721Z,51.0769
2023-05-10T12:42:45.124Z,58.0769
2023-05-10T12:43:46.670Z,60.3077
2023-05-10T12:44:48.691Z,68.1538
2023-05-10T12:45:50.878Z,65.0000
2023-05-10T12:46:52.749Z,57.7692
2023-05-10T12:47:55.271Z,49.1538
2023-05-10T12:49:08.103Z,50.3077
2023-05-10T12:50:11.143Z,53.3846
2023-05-10T12:51:02.664Z,60.3636
2023-05-10T12:52:03.012Z,59.3333
2023-05-10T12:53:05.036Z,57.6154
2023-05-10T12:54:07.113Z,58.1538
2023-05-10T12:55:09.176Z,60.3846
2023-05-10T12:56:11.272Z,66.9231
2023-05-10T12:57:13.208Z,70.8462
2023-05-10T12:58:27.785Z,64.0000
2023-05-10T12:59:17.375Z,60.0000
2023-05-10T13:00:19.389Z,55.9231
2023-05-10T13:01:21.515Z,52.4615
2023-05-10T13:02:23.498Z,52.3846
2023-05-10T13:03:25.544Z,47.6923
2023-05-10T13:04:27.602Z,53.0769
2023-05-10T13:05:29.587Z,56.2308
2023-05-10T13:06:31.773Z,59.9231
2023-05-10T13:07:33.681Z,59.5385
2023-05-10T13:08:36.293Z,56.5385
2023-05-10T13:09:37.781Z,55.1538
2023-05-10T13:10:39.842Z,61.1538
2023-05-10T13:11:41.848Z,61.6154
2023-05-10T13:12:43.904Z,66.0000
2023-05-10T13:13:45.940Z,61.4615
2023-05-10T13:14:48.009Z,60.5385
2023-05-10T13:15:50.009Z,54.0769
2023-05-10T13:16:52.112Z,57.3077
2023-05-10T13:17:54.157Z,57.1538
2023-05-10T13:18:56.169Z,52.7692
2023-05-10T13:19:58.254Z,50.5385
2023-05-10T13:21:00.240Z,52.0000
2023-05-10T13:22:02.286Z,60.2308
2023-05-10T13:23:04.336Z,70.8462
2023-05-10T13:24:06.437Z,70.3846
2023-05-10T13:25:08.431Z,71.3846
2023-05-10T13:26:11.099Z,65.3077
2023-05-10T13:27:13.098Z,67.4615
2023-05-10T13:28:14.564Z,71.5385
2023-05-10T13:29:16.783Z,69.4615
2023-05-10T13:30:18.858Z,66.7692
2023-05-10T13:31:20.720Z,63.6154
2023-05-10T13:32:22.756Z,63.6154
2023-05-10T13:33:24.822Z,71.7692
2023-05-10T13:34:26.844Z,79.6923
2023-05-10T13:35:30.057Z,83.7692
2023-05-10T13:36:30.971Z,78.2308
2023-05-10T13:37:32.951Z,74.5385
2023-05-10T13:38:35.020Z,64.9231
2023-05-10T13:39:37.053Z,64.1538
2023-05-10T13:40:39.166Z,71.6154
2023-05-10T13:41:41.146Z,76.0769
2023-05-10T13:42:43.221Z,74.9231
2023-05-10T13:43:45.295Z,76.7692
2023-05-10T13:44:47.326Z,75.5385
2023-05-10T13:45:49.360Z,69.3077
2023-05-10T13:46:52.261Z,71.0769
2023-05-10T13:47:53.868Z,78.3846
2023-05-10T13:48:55.492Z,79.6923
2023-05-10T13:49:59.151Z,85.6154
2023-05-10T13:50:59.550Z,87.2308
2023-05-10T13:52:01.624Z,85.6154
2023-05-10T13:53:03.678Z,83.0000
2023-05-10T13:54:05.734Z,83.4615
2023-05-10T13:55:07.913Z,84.8462
2023-05-10T13:56:41.270Z,78.9231
2023-05-10T13:57:16.248Z,79.0000
2023-05-10T13:58:16.117Z,72.3077
2023-05-10T13:59:16.038Z,69.4615
2023-05-10T14:00:18.008Z,71.0769
2023-05-10T14:01:20.194Z,81.6923
2023-05-10T14:02:22.284Z,87.5385
2023-05-10T14:03:24.275Z,80.3846
2023-05-10T14:04:26.226Z,76.2308
2023-05-10T14:05:28.469Z,89.7692
2023-05-10T14:06:30.236Z,87.6923
2023-05-10T14:07:32.281Z,85.0769
2023-05-10T14:08:34.371Z,90.6923
2023-05-10T14:09:36.385Z,98.5385
2023-05-10T14:10:40.255Z,102.4615
2023-05-10T14:11:40.525Z,103.6923
2023-05-10T14:12:42.528Z,97.1538
2023-05-10T14:13:44.578Z,90.6923
2023-05-10T14:14:47.318Z,82.6923
2023-05-10T14:15:48.648Z,82.3333
2023-05-10T14:16:50.910Z,83.9231
2023-05-10T14:17:52.797Z,78.3077
2023-05-10T14:18:54.796Z,79.7692
2023-05-10T14:19:56.853Z,84.6154
2023-05-10T14:20:59.353Z,89.8462
2023-05-10T14:22:00.948Z,88.0000
2023-05-10T14:23:02.965Z,90.4615
2023-05-10T14:24:04.981Z,99.1538
2023-05-10T14:25:07.623Z,102.1538
2023-05-10T14:26:09.318Z,100.1538
2023-05-10T14:27:11.321Z,104.6923
2023-05-10T14:28:13.284Z,97.3846
2023-05-10T14:29:15.200Z,88.3846
2023-05-10T14:30:17.309Z,86.6923
2023-05-10T14:31:19.744Z,83.2308
2023-05-10T14:32:21.424Z,82.0000
2023-05-10T14:33:23.627Z,85.5385
2023-05-10T14:34:25.519Z,104.4615
2023-05-10T14:35:27.473Z,119.0000
2023-05-10T14:36:31.207Z,117.7692
2023-05-10T14:37:31.639Z,119.6154
2023-05-10T14:38:33.660Z,113.2308
2023-05-10T14:39:35.689Z,106.0000
2023-05-10T14:40:37.720Z,102.8462
2023-05-10T14:41:42.662Z,100.7692
2023-05-10T14:42:41.761Z,102.5000
2023-05-10T14:43:43.822Z,102.9231
2023-05-10T14:44:45.881Z,105.3846
2023-05-10T14:45:47.950Z,107.5385
2023-05-10T14:46:50.076Z,106.0000
2023-05-10T14:47:53.764Z,106.0000
2023-05-10T14:48:54.062Z,106.4615
2023-05-10T14:49:56.089Z,103.2308
2023-05-10T14:50:58.172Z,98.6154
2023-05-10T14:52:00.367Z,92.2308
2023-05-10T14:53:03.728Z,99.4615
2023-05-10T14:54:04.285Z,97.0000
2023-05-10T14:55:06.930Z,92.0769
2023-05-10T14:56:08.402Z,86.3077
2023-05-10T14:57:10.396Z,82.6923
2023-05-10T14:58:12.507Z,77.3077
2023-05-10T14:59:14.515Z,77.5385
2023-05-10T15:00:16.772Z,80.7692
2023-05-10T15:01:18.582Z,85.9231
2023-05-10T15:02:20.709Z,98.2308
2023-05-10T15:03:22.820Z,99.7692
2023-05-10T15:04:25.964Z,97.1538
2023-05-10T15:05:26.857Z,96.3846
2023-05-10T15:06:28.777Z,100.8462
2023-05-10T15:07:30.986Z,96.0000
2023-05-10T15:08:32.920Z,90.2308
2023-05-10T15:09:34.913Z,84.9231
2023-05-10T15:10:36.926Z,81.6154
2023-05-10T15:11:39.071Z,82.5385
2023-05-10T15:12:41.045Z,81.3077
2023-05-10T15:13:43.090Z,80.0769
2023-05-10T15:14:45.102Z,80.3077
2023-05-10T15:15:47.204Z,79.6154
2023-05-10T15:16:49.212Z,78.5385
2023-05-10T15:17:51.425Z,68.9231
2023-05-10T15:18:53.364Z,74.3077
2023-05-10T15:19:55.358Z,81.2308
2023-05-10T15:20:57.458Z,77.4615
2023-05-10T15:21:59.524Z,79.3846
2023-05-10T15:23:01.503Z,76.8462
2023-05-10T15:24:03.526Z,71.6154
2023-05-10T15:25:05.624Z,65.1538
2023-05-10T15:26:07.667Z,68.0000
2023-05-10T15:27:09.693Z,70.0769
2023-05-10T15:28:12.661Z,75.7692
2023-05-10T15:29:13.736Z,71.3077
2023-05-10T15:30:15.851Z,67.8462
2023-05-10T15:31:17.857Z,67.9231
2023-05-10T15:32:19.910Z,65.6154
2023-05-10T15:33:22.608Z,60.8462
2023-05-10T15:34:24.029Z,58.1538
2023-05-10T15:35:26.516Z,58.6154
2023-05-10T15:36:28.063Z,61.4615
2023-05-10T15:37:30.117Z,68.8462
2023-05-10T15:38:32.129Z,74.4615
2023-05-10T15:39:34.209Z,76.0000
2023-05-10T15:40:36.241Z,78.0000
2023-05-10T15:41:38.271Z,74.3077
2023-05-10T15:42:40.346Z,62.7692
2023-05-10T15:43:42.571Z,68.6154
2023-05-10T15:44:44.461Z,65.3846
2023-05-10T15:45:46.454Z,78.9231
2023-05-10T15:46:49.438Z,176.0000
2023-05-10T15:47:50.624Z,121.3333
2023-05-10T15:48:52.656Z,89.1538
2023-05-10T15:49:55.071Z,81.3846
2023-05-10T15:50:56.740Z,77.6154
2023-05-10T15:51:58.709Z,75.6923
2023-05-10T15:53:00.934Z,75.3077
2023-05-10T15:54:07.625Z,79.2308
2023-05-10T15:55:04.921Z,85.3077
2023-05-10T15:56:06.917Z,77.3077
2023-05-10T15:57:09.024Z,80.1538
2023-05-10T15:58:13.618Z,80.2308
2023-05-10T15:59:13.035Z,76.9231
2023-05-10T16:00:15.104Z,71.3077
2023-05-10T16:01:17.202Z,73.5385
2023-05-10T16:02:19.241Z,65.1538
2023-05-10T16:03:21.259Z,58.6923
2023-05-10T16:04:23.274Z,51.4615
2023-05-10T16:05:25.346Z,40.2308
2023-05-10T16:06:27.417Z,45.6923
2023-05-10T16:07:29.588Z,52.4615
2023-05-10T16:08:36.697Z,53.4615
2023-05-10T16:09:33.629Z,54.9231
2023-05-10T16:10:35.565Z,57.1538
2023-05-10T16:11:37.785Z,69.3077
2023-05-10T16:12:39.726Z,69.9231
2023-05-10T16:13:41.711Z,69.9231
2023-05-10T16:14:43.740Z,71.9231
2023-05-10T16:15:45.927Z,77.3846
2023-05-10T16:16:47.924Z,83.1538
2023-05-10T16:17:50.108Z,78.6923
2023-05-10T16:18:52.242Z,80.3077
2023-05-10T16:19:54.005Z,73.2308
2023-05-10T16:20:56.023Z,68.6923
2023-05-10T16:21:58.490Z,75.1538
2023-05-10T16:23:00.127Z,74.2308
2023-05-10T16:24:02.177Z,68.0769
2023-05-10T16:25:04.211Z,58.0000
2023-05-10T16:26:06.267Z,67.6923
2023-05-10T16:27:08.278Z,61.6154
2023-05-10T16:28:10.420Z,57.3077
2023-05-10T16:29:12.410Z,57.6923
2023-05-10T16:30:14.408Z,66.8462
2023-05-10T16:31:16.464Z,67.7692
2023-05-10T16:32:18.524Z,72.0769
2023-05-10T16:33:20.630Z,69.0000
2023-05-10T16:34:22.596Z,78.9231
2023-05-10T16:35:24.654Z,81.3077
2023-05-10T16:36:26.892Z,77.7692
2023-05-10T16:37:28.838Z,68.2308
2023-05-10T16:38:30.754Z,66.3846
2023-05-10T16:39:32.833Z,59.0769
2023-05-10T16:40:43.677Z,57.2308
2023-05-10T16:41:36.874Z,45.4545
2023-05-10T16:42:38.977Z,42.7692
2023-05-10T16:43:41.059Z,44.4615
2023-05-10T16:44:43.112Z,41.5385
2023-05-10T16:45:45.762Z,59.6923
2023-05-10T16:46:47.738Z,73.8462
2023-05-10T16:47:49.300Z,77.0769
2023-05-10T16:48:51.308Z,76.1538
2023-05-10T16:49:53.305Z,109.4615
2023-05-10T16:50:55.409Z,104.8462
2023-05-10T16:51:57.416Z,97.9231
2023-05-10T16:52:59.577Z,91.0769
2023-05-10T16:54:01.523Z,95.0769
2023-05-10T16:55:03.602Z,91.0000
2023-05-10T16:56:05.564Z,83.2308
2023-05-10T16:57:07.583Z,78.6154
2023-05-10T16:58:09.643Z,69.6154
2023-05-10T16:59:11.822Z,72.9231
2023-05-10T17:00:14.769Z,71.7692
2023-05-10T17:01:15.820Z,60.9231
2023-05-10T17:02:18.013Z,61.4615
2023-05-10T17:03:20.063Z,64.0769